Time;durP1;ratioP1;P1;durP2;ratioP2;P2;SDS_P1;SDS_P2;PMS_P1;PMS_P2;Temp;Humidity;BMP_temperature;BMP_pressure;BME280_temperature;BME280_humidity;BME280_pressure;Samples;Min_cycle;Max_cycle;Signal;HPM_P1;HPM_P2
2022/04/23 00:02:12;;;;;;;13.07;5.95;;;12.50;97.40;;;;;;5041993;28;20064;-77
2022/04/23 00:04:38;;;;;;;12.70;6.00;;;12.50;97.50;;;;;;5065335;28;20054;-77
2022/04/23 00:07:05;;;;;;;17.73;6.63;;;12.40;97.60;;;;;;5039348;28;20040;-76
2022/04/23 00:09:31;;;;;;;8.77;6.03;;;12.40;97.80;;;;;;5061370;28;20123;-77
2022/04/23 00:11:58;;;;;;;9.85;5.93;;;12.40;97.90;;;;;;5061156;28;20045;-77
2022/04/23 00:14:24;;;;;;;12.73;6.70;;;12.40;98.00;;;;;;5064054;28;20049;-76
2022/04/23 00:16:50;;;;;;;12.43;6.18;;;12.30;98.20;;;;;;5062493;28;20044;-77
2022/04/23 00:19:17;;;;;;;10.85;6.38;;;12.30;98.40;;;;;;5067571;28;20119;-77
2022/04/23 00:21:43;;;;;;;11.20;6.25;;;12.30;98.70;;;;;;5044795;28;20102;-77
2022/04/23 00:24:08;;;;;;;13.40;6.43;;;12.20;98.80;;;;;;5037853;28;20053;-77
2022/04/23 00:26:34;;;;;;;12.40;6.65;;;12.20;99.10;;;;;;5068137;28;20040;-77
2022/04/23 00:29:00;;;;;;;10.85;6.20;;;12.20;99.40;;;;;;5068393;28;20048;-77
2022/04/23 00:31:26;;;;;;;11.75;6.53;;;12.10;99.40;;;;;;5066900;28;20049;-77
2022/04/23 00:33:52;;;;;;;11.52;6.78;;;12.10;99.60;;;;;;5045710;28;20105;-76
2022/04/23 00:36:19;;;;;;;9.60;6.40;;;12.10;99.80;;;;;;5042133;28;20056;-76
2022/04/23 00:38:49;;;;;;;12.93;7.05;;;12.10;99.90;;;;;;5066800;28;20036;-78
2022/04/23 00:44:00;;;;;;;12.88;6.78;;;12.00;99.90;;;;;;5053258;28;20048;-77
2022/04/23 00:46:26;;;;;;;10.02;6.30;;;11.90;99.90;;;;;;5041620;28;20087;-77
2022/04/23 00:48:51;;;;;;;13.82;7.35;;;12.00;99.90;;;;;;5048742;28;20082;-76
2022/04/23 00:51:17;;;;;;;12.50;6.63;;;12.00;99.90;;;;;;5043188;28;20056;-78
2022/04/23 00:53:44;;;;;;;10.38;6.75;;;12.00;99.90;;;;;;5045495;28;20047;-76
2022/04/23 00:56:10;;;;;;;15.45;7.03;;;12.00;99.90;;;;;;5057261;28;20370;-77
2022/04/23 00:58:36;;;;;;;13.70;7.25;;;11.90;99.90;;;;;;5047592;28;20044;-76
2022/04/23 01:01:02;;;;;;;12.85;7.28;;;11.90;99.90;;;;;;5066885;28;20049;-77
2022/04/23 01:03:28;;;;;;;15.15;7.57;;;11.80;99.90;;;;;;5047579;28;20099;-77
2022/04/23 01:05:55;;;;;;;14.63;6.68;;;11.80;99.90;;;;;;5062989;28;20052;-77
2022/04/23 01:08:21;;;;;;;11.95;6.70;;;11.80;99.90;;;;;;5058329;28;20152;-78
2022/04/23 01:10:49;;;;;;;14.98;8.05;;;11.80;99.90;;;;;;5055697;28;20045;-76
2022/04/23 01:13:16;;;;;;;13.48;7.60;;;11.80;99.90;;;;;;5066080;28;20052;-77
2022/04/23 01:16:00;;;;;;;12.00;6.82;;;11.80;99.90;;;;;;5034667;28;20045;-77
2022/04/23 01:18:26;;;;;;;15.43;7.68;;;11.70;99.90;;;;;;5042400;28;20037;-77
2022/04/23 01:20:57;;;;;;;12.85;7.70;;;11.70;99.90;;;;;;5056645;28;20041;-77
2022/04/23 01:23:23;;;;;;;14.63;7.72;;;11.70;99.90;;;;;;5039177;28;20481;-77
2022/04/23 01:25:54;;;;;;;13.25;8.25;;;11.70;99.90;;;;;;5033654;28;20120;-78
2022/04/23 01:28:23;;;;;;;;;;;11.70;99.90;;;;;;5043917;28;20045;-77
2022/04/23 01:30:51;;;;;;;11.27;8.13;;;11.60;99.90;;;;;;5054386;28;19969;-77
2022/04/23 01:33:17;;;;;;;12.05;7.75;;;11.60;99.90;;;;;;5056602;28;20045;-78
2022/04/23 01:35:43;;;;;;;13.68;8.02;;;11.60;99.90;;;;;;5043109;28;20067;-78
2022/04/23 01:38:09;;;;;;;12.35;7.80;;;11.60;99.90;;;;;;5033101;28;20202;-78
2022/04/23 01:40:35;;;;;;;15.43;7.55;;;11.60;99.90;;;;;;5035143;28;20143;-77
2022/04/23 01:43:01;;;;;;;12.40;7.95;;;11.50;99.90;;;;;;5040153;28;20044;-75
2022/04/23 01:45:26;;;;;;;13.32;7.90;;;11.50;99.90;;;;;;5056659;28;20396;-78
2022/04/23 01:47:52;;;;;;;12.10;7.28;;;11.50;99.90;;;;;;5041285;28;20123;-78
2022/04/23 01:50:17;;;;;;;13.25;8.85;;;11.50;99.90;;;;;;5055847;28;20342;-78
2022/04/23 01:52:43;;;;;;;11.48;7.70;;;11.50;99.90;;;;;;5045220;28;20044;-77
2022/04/23 01:55:09;;;;;;;12.88;8.50;;;11.50;99.90;;;;;;5040294;28;20060;-77
2022/04/23 01:57:34;;;;;;;18.55;8.75;;;11.50;99.90;;;;;;5039232;28;20051;-76
2022/04/23 02:00:00;;;;;;;13.57;8.45;;;11.50;99.90;;;;;;5042572;28;20052;-77
2022/04/23 02:02:26;;;;;;;16.33;8.85;;;11.40;99.90;;;;;;5055646;28;20044;-76
2022/04/23 02:04:51;;;;;;;16.67;9.23;;;11.50;99.90;;;;;;5032694;28;20068;-77
2022/04/23 02:07:17;;;;;;;16.40;9.40;;;11.40;99.90;;;;;;5063911;28;20044;-77
2022/04/23 02:09:42;;;;;;;15.93;9.20;;;11.40;99.90;;;;;;5035433;28;20044;-77
2022/04/23 02:12:08;;;;;;;13.15;8.95;;;11.40;99.90;;;;;;5053204;28;20467;-77
2022/04/23 02:14:37;;;;;;;11.60;8.02;;;11.40;99.90;;;;;;5060569;28;20094;-77
2022/04/23 02:17:03;;;;;;;14.07;8.73;;;11.40;99.90;;;;;;5037691;28;20493;-77
2022/04/23 02:19:29;;;;;;;11.40;8.13;;;11.40;99.90;;;;;;5059948;28;20047;-77
2022/04/23 02:21:57;;;;;;;14.88;8.45;;;11.40;99.90;;;;;;5058216;28;20052;-77
2022/04/23 02:24:23;;;;;;;15.57;8.80;;;11.40;99.90;;;;;;5055597;28;20052;-77
2022/04/23 02:26:49;;;;;;;12.13;8.02;;;11.40;99.90;;;;;;5034808;28;20536;-77
2022/04/23 02:29:14;;;;;;;11.15;8.32;;;11.30;99.90;;;;;;5058633;28;20568;-77
2022/04/23 02:31:40;;;;;;;14.07;9.50;;;11.30;99.90;;;;;;5038064;28;20116;-76
2022/04/23 02:34:05;;;;;;;13.48;8.52;;;11.30;99.90;;;;;;5073868;28;20101;-76
2022/04/23 02:36:31;;;;;;;16.42;8.75;;;11.30;99.90;;;;;;5032277;28;20039;-77
2022/04/23 02:38:59;;;;;;;16.20;8.07;;;11.20;99.90;;;;;;5049266;28;20041;-77
2022/04/23 02:41:24;;;;;;;12.02;8.18;;;11.20;99.90;;;;;;5059354;28;20040;-77
2022/04/23 02:43:50;;;;;;;14.20;8.95;;;11.10;99.90;;;;;;5053786;28;20063;-77
2022/04/23 02:46:16;;;;;;;12.23;8.40;;;11.10;99.90;;;;;;5051183;28;20120;-77
2022/04/23 02:48:42;;;;;;;18.55;8.65;;;11.10;99.90;;;;;;5032175;28;20158;-77
2022/04/23 02:51:08;;;;;;;12.50;8.27;;;11.10;99.90;;;;;;5052812;28;20115;-77
2022/04/23 02:53:34;;;;;;;11.30;7.80;;;11.00;99.90;;;;;;5054176;28;20124;-77
2022/04/23 02:56:02;;;;;;;12.00;7.90;;;11.00;99.90;;;;;;5061290;28;20028;-77
2022/04/23 02:58:28;;;;;;;11.90;7.53;;;11.00;99.90;;;;;;5062029;28;20539;-77
2022/04/23 03:00:54;;;;;;;12.65;8.15;;;11.00;99.90;;;;;;5064217;28;20124;-75
2022/04/23 03:03:21;;;;;;;13.55;8.25;;;11.00;99.90;;;;;;5062635;28;20488;-77
2022/04/23 03:05:46;;;;;;;13.93;8.68;;;11.00;99.90;;;;;;5064254;28;20028;-76
2022/04/23 03:08:13;;;;;;;14.68;8.40;;;11.00;99.90;;;;;;5053381;28;20033;-77
2022/04/23 03:10:39;;;;;;;14.45;8.60;;;11.00;99.90;;;;;;5066116;28;20075;-78
2022/04/23 03:13:07;;;;;;;17.35;8.15;;;10.90;99.90;;;;;;5031514;28;20433;-78
2022/04/23 03:15:33;;;;;;;11.80;7.95;;;10.90;99.90;;;;;;5042853;28;20048;-77
2022/04/23 03:18:10;;;;;;;11.52;8.57;;;10.90;99.90;;;;;;5050812;28;20094;-77
2022/04/23 03:20:37;;;;;;;11.35;8.27;;;10.90;99.90;;;;;;5035977;28;20087;-77
2022/04/23 03:23:04;;;;;;;14.07;7.55;;;10.90;99.90;;;;;;5033095;28;20124;-77
2022/04/23 03:25:32;;;;;;;9.82;7.95;;;10.90;99.90;;;;;;5041170;28;20082;-76
2022/04/23 03:27:59;;;;;;;12.98;7.68;;;10.90;99.90;;;;;;5054009;28;20049;-76
2022/04/23 03:30:25;;;;;;;10.60;7.50;;;10.90;99.90;;;;;;5055164;28;20106;-77
2022/04/23 03:32:50;;;;;;;12.63;7.60;;;10.90;99.90;;;;;;5066475;28;20048;-77
2022/04/23 03:35:16;;;;;;;11.70;7.70;;;10.90;99.90;;;;;;5060643;28;20146;-77
2022/04/23 03:37:42;;;;;;;15.57;8.38;;;10.90;99.90;;;;;;5035947;28;20118;-76
2022/04/23 03:40:09;;;;;;;12.38;8.20;;;10.80;99.90;;;;;;5060627;28;20048;-77
2022/04/23 03:42:35;;;;;;;11.45;7.97;;;10.80;99.90;;;;;;5032096;28;20045;-76
2022/04/23 03:45:05;;;;;;;10.90;8.32;;;10.80;99.90;;;;;;5039586;28;20045;-76
2022/04/23 03:47:32;;;;;;;12.07;7.53;;;10.80;99.90;;;;;;5053944;28;20399;-77
2022/04/23 03:50:05;;;;;;;11.73;8.43;;;10.80;99.90;;;;;;5064144;28;20044;-77
2022/04/23 03:52:31;;;;;;;11.27;8.23;;;10.80;99.90;;;;;;5059089;28;20349;-77
2022/04/23 03:54:57;;;;;;;14.85;8.82;;;10.80;99.90;;;;;;5038061;28;20052;-76
2022/04/23 03:57:23;;;;;;;12.43;8.50;;;10.80;99.90;;;;;;5030842;28;20136;-76
2022/04/23 03:59:48;;;;;;;12.98;8.27;;;10.80;99.90;;;;;;5052795;28;20080;-76
2022/04/23 04:02:14;;;;;;;13.23;8.43;;;10.70;99.90;;;;;;5039247;28;20057;-77
2022/04/23 04:04:41;;;;;;;11.60;7.85;;;10.70;99.90;;;;;;5044148;28;20050;-76
2022/04/23 04:07:07;;;;;;;11.85;8.80;;;10.70;99.90;;;;;;5030786;28;20052;-76
2022/04/23 04:09:33;;;;;;;11.65;8.20;;;10.70;99.90;;;;;;5056584;28;20036;-77
2022/04/23 04:12:01;;;;;;;11.88;8.02;;;10.70;99.90;;;;;;5065645;28;20112;-77
2022/04/23 04:14:34;;;;;;;12.60;8.32;;;10.70;99.90;;;;;;5059068;28;20423;-76
2022/04/23 04:17:01;;;;;;;16.80;8.93;;;10.70;99.90;;;;;;5048396;28;20056;-76
2022/04/23 04:19:28;;;;;;;11.13;8.25;;;10.80;99.90;;;;;;5065408;28;20124;-76
2022/04/23 04:21:55;;;;;;;12.18;8.20;;;10.70;99.90;;;;;;5045207;28;20105;-77
2022/04/23 04:24:20;;;;;;;11.88;8.25;;;10.60;99.90;;;;;;5057211;28;20036;-75
2022/04/23 04:26:49;;;;;;;12.50;8.98;;;10.60;99.90;;;;;;5058076;28;20126;-75
2022/04/23 04:29:15;;;;;;;11.35;8.32;;;10.60;99.90;;;;;;5039579;28;20057;-76
2022/04/23 04:31:49;;;;;;;12.18;7.70;;;10.60;99.90;;;;;;5061235;28;20055;-78
2022/04/23 04:34:32;;;;;;;10.75;8.10;;;10.60;99.90;;;;;;5050862;28;20621;-80
2022/04/23 04:37:09;;;;;;;10.82;8.35;;;10.60;99.90;;;;;;5033690;28;20107;-79
2022/04/23 04:39:36;;;;;;;12.18;8.32;;;10.50;99.90;;;;;;5055110;28;20037;-78
2022/04/23 04:42:02;;;;;;;13.38;8.68;;;10.50;99.90;;;;;;5055781;28;20049;-78
2022/04/23 04:44:28;;;;;;;12.90;8.60;;;10.50;99.90;;;;;;5056485;28;20055;-79
2022/04/23 04:46:53;;;;;;;12.48;7.90;;;10.50;99.90;;;;;;5057803;28;20135;-79
2022/04/23 04:49:22;;;;;;;11.85;8.77;;;10.50;99.90;;;;;;5055545;28;20498;-77
2022/04/23 04:51:48;;;;;;;12.93;8.20;;;10.50;99.90;;;;;;5035547;28;20053;-79
2022/04/23 04:54:14;;;;;;;11.43;8.88;;;10.50;99.90;;;;;;5060998;28;20040;-79
2022/04/23 04:56:39;;;;;;;13.68;8.75;;;10.50;99.90;;;;;;5041275;28;20041;-78
2022/04/23 04:59:05;;;;;;;11.43;8.30;;;10.50;99.90;;;;;;5035061;28;20041;-78
2022/04/23 05:01:31;;;;;;;13.07;8.27;;;10.50;99.90;;;;;;5059744;28;20066;-79
2022/04/23 05:03:57;;;;;;;12.15;8.52;;;10.50;99.90;;;;;;5059530;28;20086;-78
2022/04/23 05:06:23;;;;;;;12.35;7.90;;;10.50;99.90;;;;;;5043123;28;20554;-77
2022/04/23 05:08:48;;;;;;;10.95;7.68;;;10.50;99.90;;;;;;5035861;28;20060;-77
2022/04/23 05:11:14;;;;;;;12.98;8.77;;;10.50;99.90;;;;;;5041666;28;20049;-77
2022/04/23 05:13:40;;;;;;;9.25;7.72;;;10.50;99.90;;;;;;5031503;28;20045;-77
2022/04/23 05:16:06;;;;;;;10.63;8.20;;;10.50;99.90;;;;;;5035015;28;20040;-77
2022/04/23 05:18:32;;;;;;;12.18;8.05;;;10.50;99.90;;;;;;5049353;28;20177;-77
2022/04/23 05:20:58;;;;;;;12.05;8.15;;;10.50;99.90;;;;;;5067961;28;20457;-76
2022/04/23 05:23:24;;;;;;;9.55;7.30;;;10.50;99.90;;;;;;5084994;28;20041;-76
2022/04/23 05:25:49;;;;;;;10.55;7.80;;;10.50;99.90;;;;;;5042283;28;20068;-78
2022/04/23 05:28:15;;;;;;;13.25;7.60;;;10.60;99.90;;;;;;5030074;28;20124;-77
2022/04/23 05:30:41;;;;;;;16.13;7.68;;;10.50;99.90;;;;;;5040359;28;20059;-77
2022/04/23 05:33:07;;;;;;;10.88;7.80;;;10.50;99.90;;;;;;5043116;28;20044;-77
2022/04/23 05:35:33;;;;;;;13.18;8.55;;;10.60;99.90;;;;;;5065144;28;20127;-77
2022/04/23 05:37:59;;;;;;;10.88;7.65;;;10.60;99.90;;;;;;5056082;28;20173;-76
2022/04/23 05:40:25;;;;;;;11.38;8.23;;;10.60;99.90;;;;;;5046411;28;20128;-77
2022/04/23 05:42:55;;;;;;;11.95;8.38;;;10.60;99.90;;;;;;5053486;28;20054;-77
2022/04/23 05:45:21;;;;;;;10.93;7.75;;;10.60;99.90;;;;;;5070040;28;20416;-77
2022/04/23 05:47:47;;;;;;;9.30;7.40;;;10.60;99.90;;;;;;5045453;28;20055;-77
2022/04/23 05:50:12;;;;;;;12.40;7.93;;;10.70;99.90;;;;;;5048279;28;20048;-77
2022/04/23 05:52:38;;;;;;;10.73;7.75;;;10.70;99.90;;;;;;5060723;28;20428;-77
2022/04/23 05:55:07;;;;;;;10.68;7.57;;;10.70;99.90;;;;;;5037144;28;20062;-78
2022/04/23 05:57:34;;;;;;;10.73;7.63;;;10.80;99.90;;;;;;5062772;28;20085;-77
2022/04/23 06:00:00;;;;;;;11.07;7.82;;;10.80;99.90;;;;;;5069023;28;20037;-78
2022/04/23 06:02:25;;;;;;;18.15;7.13;;;10.80;99.90;;;;;;5032161;28;20071;-77
2022/04/23 06:04:52;;;;;;;13.45;8.55;;;10.90;99.90;;;;;;5052215;28;20068;-77
2022/04/23 06:07:18;;;;;;;11.55;7.45;;;10.90;99.90;;;;;;5044724;28;20045;-76
2022/04/23 06:09:44;;;;;;;10.95;7.35;;;11.00;99.90;;;;;;5057698;28;20090;-78
2022/04/23 06:12:09;;;;;;;10.57;8.10;;;11.00;99.90;;;;;;5063968;28;20048;-78
2022/04/23 06:14:35;;;;;;;13.45;8.43;;;11.00;99.90;;;;;;5043112;28;20045;-76
2022/04/23 06:17:01;;;;;;;13.20;8.57;;;11.00;99.90;;;;;;5048923;28;20060;-78
2022/04/23 06:19:31;;;;;;;11.20;8.20;;;11.10;99.90;;;;;;5068485;28;20041;-76
2022/04/23 06:21:57;;;;;;;9.93;7.72;;;11.20;99.90;;;;;;5059239;28;20405;-76
2022/04/23 06:24:23;;;;;;;13.10;9.13;;;11.20;99.90;;;;;;5051312;28;20046;-77
2022/04/23 06:26:48;;;;;;;10.07;8.13;;;11.20;99.90;;;;;;5030561;28;20128;-76
2022/04/23 06:29:14;;;;;;;12.63;8.13;;;11.20;99.90;;;;;;5053699;28;20043;-76
2022/04/23 06:31:39;;;;;;;12.10;8.57;;;11.30;99.90;;;;;;5032133;28;20044;-76
2022/04/23 06:34:05;;;;;;;11.82;8.25;;;11.30;99.90;;;;;;5048765;28;20505;-76
2022/04/23 06:36:30;;;;;;;12.50;9.38;;;11.40;99.90;;;;;;5052586;28;20040;-76
2022/04/23 06:38:56;;;;;;;11.30;8.63;;;11.40;99.90;;;;;;5064432;28;20105;-76
2022/04/23 06:41:21;;;;;;;11.45;8.63;;;11.40;99.90;;;;;;5049938;28;20553;-78
2022/04/23 06:43:47;;;;;;;14.05;9.20;;;11.50;99.90;;;;;;5040599;28;20036;-77
2022/04/23 06:46:13;;;;;;;10.85;8.38;;;11.50;99.90;;;;;;5040301;28;20044;-76
2022/04/23 06:48:38;;;;;;;11.63;8.70;;;11.60;99.90;;;;;;5032226;28;20053;-77
2022/04/23 06:51:04;;;;;;;12.88;8.60;;;11.70;99.90;;;;;;5065456;28;20392;-76
2022/04/23 06:53:29;;;;;;;11.93;9.70;;;11.70;99.90;;;;;;5061771;28;20035;-75
2022/04/23 06:55:55;;;;;;;14.43;9.00;;;11.80;99.90;;;;;;5061418;28;20121;-77
2022/04/23 06:58:22;;;;;;;13.60;9.48;;;11.90;99.90;;;;;;5045731;28;20557;-76
2022/04/23 07:00:48;;;;;;;13.13;9.15;;;11.90;99.90;;;;;;5053601;28;20071;-77
2022/04/23 07:03:13;;;;;;;17.42;9.05;;;12.00;99.90;;;;;;5059321;28;20048;-77
2022/04/23 07:05:39;;;;;;;13.48;8.88;;;12.10;99.90;;;;;;5056845;28;20094;-76
2022/04/23 07:08:05;;;;;;;12.40;8.80;;;12.10;99.90;;;;;;5041550;28;20425;-77
2022/04/23 07:10:32;;;;;;;11.00;8.40;;;12.20;99.90;;;;;;5030054;28;20088;-76
2022/04/23 07:12:58;;;;;;;13.18;8.63;;;12.20;99.90;;;;;;5028723;28;20071;-76
2022/04/23 07:15:25;;;;;;;10.18;7.78;;;12.30;99.90;;;;;;5061283;28;20052;-76
2022/04/23 07:17:51;;;;;;;12.35;8.52;;;12.30;99.90;;;;;;5050633;28;20051;-76
2022/04/23 07:20:18;;;;;;;11.25;8.38;;;12.40;99.90;;;;;;5063237;28;20040;-76
2022/04/23 07:25:33;;;;;;;11.35;8.45;;;12.50;99.90;;;;;;5056142;28;20434;-76
2022/04/23 07:27:59;;;;;;;9.50;7.72;;;12.50;99.90;;;;;;5055542;28;20464;-75
2022/04/23 07:30:29;;;;;;;10.35;8.13;;;12.60;99.90;;;;;;5031434;28;20098;-76
2022/04/23 07:32:56;;;;;;;12.15;7.78;;;12.60;99.70;;;;;;5049894;28;20119;-77
2022/04/23 07:38:17;;;;;;;9.10;7.55;;;12.70;99.40;;;;;;5058486;28;20084;-76
2022/04/23 07:40:47;;;;;;;11.20;7.50;;;12.70;99.30;;;;;;5053295;28;20045;-77
2022/04/23 07:43:14;;;;;;;13.90;7.47;;;12.80;99.00;;;;;;5054937;28;20139;-76
2022/04/23 07:45:41;;;;;;;10.80;7.97;;;12.80;98.80;;;;;;5066882;28;20041;-76
2022/04/23 07:48:08;;;;;;;11.18;7.78;;;12.90;98.80;;;;;;5053504;28;20372;-76
2022/04/23 07:50:35;;;;;;;12.98;8.45;;;12.90;98.60;;;;;;5068693;28;20513;-77
2022/04/23 07:53:01;;;;;;;11.63;7.88;;;13.00;98.40;;;;;;5071561;28;20126;-76
2022/04/23 07:55:30;;;;;;;11.57;8.48;;;13.10;98.10;;;;;;5052503;28;20061;-76
2022/04/23 07:57:59;;;;;;;16.35;8.68;;;13.10;98.00;;;;;;5063246;28;20060;-76
2022/04/23 08:00:25;;;;;;;15.77;8.07;;;13.20;97.80;;;;;;5063089;28;20048;-77
2022/04/23 08:02:52;;;;;;;9.25;7.60;;;13.20;97.70;;;;;;5054962;28;20037;-75
2022/04/23 08:05:18;;;;;;;10.00;7.30;;;13.30;97.30;;;;;;5056045;28;20054;-77
2022/04/23 08:07:44;;;;;;;13.45;8.55;;;13.40;96.90;;;;;;5036081;28;20062;-76
2022/04/23 08:10:10;;;;;;;11.02;7.82;;;13.40;96.50;;;;;;5053629;28;20091;-76
2022/04/23 08:12:37;;;;;;;12.27;8.23;;;13.40;96.20;;;;;;5051760;28;20425;-76
2022/04/23 08:15:04;;;;;;;14.65;9.32;;;13.50;96.10;;;;;;5070264;28;20123;-76
2022/04/23 08:17:29;;;;;;;11.60;8.88;;;13.50;96.10;;;;;;5067970;28;20359;-77
2022/04/23 08:19:55;;;;;;;14.43;8.73;;;13.60;95.90;;;;;;5064619;28;20044;-77
2022/04/23 08:22:21;;;;;;;11.98;8.10;;;13.60;95.40;;;;;;5035551;28;20131;-76
2022/04/23 08:24:46;;;;;;;10.70;8.50;;;13.60;95.20;;;;;;5058783;28;20032;-76
2022/04/23 08:27:12;;;;;;;11.68;8.65;;;13.70;95.20;;;;;;5037168;28;20049;-77
2022/04/23 08:32:21;;;;;;;11.60;8.88;;;13.80;94.70;;;;;;5032226;28;20052;-76
2022/04/23 08:34:47;;;;;;;14.95;8.30;;;13.70;94.70;;;;;;5058579;28;20399;-75
2022/04/23 08:37:13;;;;;;;13.25;9.10;;;13.90;94.60;;;;;;5038603;28;20094;-82
2022/04/23 08:39:39;;;;;;;14.50;8.52;;;14.10;94.40;;;;;;5045035;28;20056;-83
2022/04/23 08:42:09;;;;;;;12.32;9.75;;;14.00;93.90;;;;;;5063799;28;20048;-77
2022/04/23 08:44:35;;;;;;;11.55;8.52;;;14.00;93.50;;;;;;5069936;28;20048;-78
2022/04/23 08:47:01;;;;;;;10.25;8.23;;;14.00;93.30;;;;;;5070987;28;20056;-77
2022/04/23 08:49:32;;;;;;;10.68;8.70;;;14.10;93.20;;;;;;5071031;28;20435;-77
2022/04/23 08:52:15;;;;;;;10.77;8.50;;;14.10;93.20;;;;;;5054199;28;20056;-78
2022/04/23 08:54:41;;;;;;;17.13;9.02;;;14.20;93.00;;;;;;5051053;28;20051;-76
2022/04/23 08:57:07;;;;;;;15.15;9.20;;;14.20;92.70;;;;;;5030983;28;20048;-77
2022/04/23 08:59:33;;;;;;;10.13;7.90;;;14.20;92.40;;;;;;5050471;28;20040;-77
2022/04/23 09:01:59;;;;;;;9.65;8.30;;;14.20;92.20;;;;;;5060379;28;20062;-77
2022/04/23 09:04:25;;;;;;;10.60;8.35;;;14.20;91.90;;;;;;5051731;28;20118;-77
2022/04/23 09:06:50;;;;;;;11.07;8.13;;;14.30;91.70;;;;;;5045630;28;20037;-78
2022/04/23 09:09:19;;;;;;;10.05;8.10;;;14.40;91.30;;;;;;5063889;28;20039;-78
2022/04/23 09:11:50;;;;;;;12.40;8.50;;;14.30;91.10;;;;;;5029347;28;20052;-77
2022/04/23 09:14:30;;;;;;;11.07;8.10;;;14.40;90.90;;;;;;5061501;28;20121;-77
2022/04/23 09:25:40;;;;;;;10.27;8.45;;;14.50;90.40;;;;;;5057718;28;20056;-81
2022/04/23 09:28:18;;;;;;;10.80;8.60;;;14.60;90.30;;;;;;5030964;28;20133;-82
2022/04/23 09:30:46;;;;;;;11.07;7.93;;;14.60;90.20;;;;;;5040959;28;20056;-80
2022/04/23 09:33:12;;;;;;;12.27;7.65;;;14.70;89.50;;;;;;5053028;28;20406;-80
2022/04/23 09:35:59;;;;;;;9.77;8.18;;;14.70;88.50;;;;;;5053475;28;20120;-80
2022/04/23 09:38:27;;;;;;;10.30;8.63;;;14.70;87.40;;;;;;5052024;28;20110;-80
2022/04/23 09:40:55;;;;;;;11.15;9.18;;;14.80;88.00;;;;;;5030867;28;20049;-80
2022/04/23 09:43:32;;;;;;;10.25;8.00;;;14.80;88.00;;;;;;5038060;28;20084;-79
2022/04/23 09:46:03;;;;;;;10.45;8.40;;;14.90;88.30;;;;;;5031502;28;20392;-78
2022/04/23 09:48:30;;;;;;;13.30;8.65;;;14.90;88.80;;;;;;5053712;28;20063;-78
2022/04/23 09:50:56;;;;;;;18.42;8.30;;;15.00;88.50;;;;;;5036209;28;20178;-79
2022/04/23 09:53:27;;;;;;;10.60;9.18;;;15.00;88.10;;;;;;5048679;28;20068;-79
2022/04/23 09:55:54;;;;;;;18.15;8.43;;;15.10;87.70;;;;;;5063095;28;20043;-79
2022/04/23 09:58:20;;;;;;;9.85;7.10;;;15.10;87.10;;;;;;5042322;28;20480;-79
2022/04/23 10:00:47;;;;;;;9.57;8.38;;;15.20;85.90;;;;;;5032134;28;20140;-79
2022/04/23 10:03:13;;;;;;;11.32;8.02;;;15.30;85.60;;;;;;5041189;28;20045;-78
2022/04/23 10:05:40;;;;;;;10.65;8.65;;;15.30;85.20;;;;;;5038677;28;20089;-77
2022/04/23 10:08:17;;;;;;;8.10;6.65;;;15.30;84.90;;;;;;5033403;28;20540;-80
2022/04/23 10:10:54;;;;;;;10.35;6.45;;;15.40;84.00;;;;;;5029631;28;20057;-79
2022/04/23 10:13:28;;;;;;;12.98;6.65;;;15.50;82.60;;;;;;5029762;28;20039;-80
2022/04/23 10:15:55;;;;;;;8.52;6.60;;;15.50;82.40;;;;;;5052122;28;20143;-79
2022/04/23 10:18:22;;;;;;;8.88;6.65;;;15.60;82.20;;;;;;5053814;28;20036;-83
2022/04/23 10:20:54;;;;;;;9.02;7.20;;;15.70;81.30;;;;;;5031996;28;20191;-80
2022/04/23 10:23:48;;;;;;;11.80;7.00;;;15.80;79.70;;;;;;5047944;28;20084;-79
2022/04/23 10:26:28;;;;;;;9.48;6.65;;;15.80;78.80;;;;;;5031633;28;20441;-81
2022/04/23 10:28:54;;;;;;;10.35;6.93;;;15.80;78.70;;;;;;5042657;28;20178;-81
2022/04/23 10:31:19;;;;;;;7.63;6.50;;;15.90;78.90;;;;;;5050302;28;20079;-81
2022/04/23 10:33:52;;;;;;;7.97;6.38;;;15.90;77.80;;;;;;5045969;28;20047;-81
2022/04/23 10:36:19;;;;;;;12.20;6.28;;;16.00;77.30;;;;;;5049346;28;20048;-80
2022/04/23 10:38:51;;;;;;;6.43;5.63;;;16.30;76.70;;;;;;5046819;28;20583;-80
2022/04/23 10:41:18;;;;;;;8.40;6.38;;;16.20;75.70;;;;;;5059529;28;20032;-80
2022/04/23 10:44:04;;;;;;;7.65;6.10;;;16.30;75.10;;;;;;5048649;28;20053;-81
2022/04/23 10:46:42;;;;;;;10.38;6.38;;;16.40;74.70;;;;;;5047719;28;20052;-81
2022/04/23 10:49:19;;;;;;;8.65;6.22;;;16.50;75.10;;;;;;5030255;28;20057;-80
2022/04/23 10:51:53;;;;;;;12.85;6.20;;;16.50;73.70;;;;;;5049725;28;20051;-80
2022/04/23 10:54:21;;;;;;;7.72;5.78;;;16.70;72.50;;;;;;5049690;28;20068;-80
2022/04/23 10:56:53;;;;;;;11.65;5.70;;;16.80;71.70;;;;;;5041800;28;20041;-81
2022/04/23 10:59:52;;;;;;;8.85;5.00;;;16.90;70.80;;;;;;5050712;28;20119;-79
2022/04/23 11:02:24;;;;;;;7.93;5.35;;;17.00;70.30;;;;;;5021422;28;20519;-81
2022/04/23 11:13:38;;;;;;;11.32;5.88;;;17.60;69.10;;;;;;5049306;28;20056;-80
2022/04/23 11:16:11;;;;;;;7.95;5.40;;;17.70;68.40;;;;;;5065259;28;20455;-79
2022/04/23 11:18:37;;;;;;;7.15;5.38;;;17.80;67.40;;;;;;5042326;28;20088;-80
2022/04/23 11:21:26;;;;;;;6.53;5.00;;;17.90;67.60;;;;;;5071331;28;20067;-80
2022/04/23 11:23:53;;;;;;;8.07;5.30;;;18.00;67.20;;;;;;5053483;28;20063;-82
2022/04/23 11:26:38;;;;;;;6.60;5.22;;;18.20;67.40;;;;;;5040943;28;20044;-82
2022/04/23 11:29:04;;;;;;;9.05;5.22;;;18.30;66.70;;;;;;5065129;28;20044;-83
2022/04/23 11:31:30;;;;;;;6.65;4.75;;;18.50;65.90;;;;;;5054023;28;20516;-82
2022/04/23 11:34:01;;;;;;;6.57;4.85;;;18.60;65.80;;;;;;5052407;28;20127;-83
2022/04/23 11:36:31;;;;;;;10.35;4.88;;;18.80;65.10;;;;;;5072548;28;20389;-80
2022/04/23 11:38:58;;;;;;;5.93;4.85;;;18.90;64.90;;;;;;5064338;28;20124;-81
2022/04/23 11:41:28;;;;;;;9.82;4.35;;;19.00;64.00;;;;;;5052115;28;20080;-80
2022/04/23 11:43:54;;;;;;;8.45;5.30;;;19.10;63.50;;;;;;5054053;28;20059;-81
2022/04/23 11:46:20;;;;;;;11.93;4.82;;;19.20;62.30;;;;;;5037067;28;20037;-81
2022/04/23 11:48:47;;;;;;;10.07;4.97;;;19.30;61.50;;;;;;5067069;28;20090;-81
2022/04/23 11:51:21;;;;;;;6.93;4.45;;;19.40;61.80;;;;;;5050036;28;20334;-81
2022/04/23 11:54:00;;;;;;;5.68;3.67;;;19.60;60.50;;;;;;5051005;28;20037;-80
2022/04/23 11:56:29;;;;;;;12.30;4.40;;;19.70;60.40;;;;;;5059950;28;20041;-80
2022/04/23 11:58:57;;;;;;;6.88;4.57;;;19.80;60.10;;;;;;5038237;28;20044;-82
2022/04/23 12:01:26;;;;;;;6.10;4.32;;;19.90;59.20;;;;;;5045987;28;20048;-81
2022/04/23 12:03:54;;;;;;;6.60;4.60;;;20.00;58.30;;;;;;5051677;28;20164;-82
2022/04/23 12:06:21;;;;;;;7.47;4.40;;;20.10;58.00;;;;;;5057920;28;20494;-80
2022/04/23 12:08:47;;;;;;;5.85;4.55;;;20.20;58.00;;;;;;5038801;28;20041;-80
2022/04/23 12:11:20;;;;;;;6.68;4.35;;;20.30;58.00;;;;;;5033434;28;20040;-81
2022/04/23 12:13:49;;;;;;;5.95;4.30;;;20.50;57.20;;;;;;5050475;28;20466;-81
2022/04/23 12:16:39;;;;;;;11.68;4.60;;;20.50;56.60;;;;;;5043271;28;20072;-82
2022/04/23 12:19:13;;;;;;;11.02;4.20;;;20.70;56.00;;;;;;5049977;28;20063;-81
2022/04/23 12:21:56;;;;;;;6.47;4.63;;;20.80;55.50;;;;;;5043618;28;20052;-81
2022/04/23 12:24:35;;;;;;;5.05;3.65;;;20.80;55.70;;;;;;5051768;28;20037;-81
2022/04/23 12:27:04;;;;;;;5.80;3.67;;;20.90;55.50;;;;;;5049111;28;20075;-82
2022/04/23 12:40:57;;;;;;;8.93;3.30;;;21.50;53.70;;;;;;5065428;28;20053;-78
2022/04/23 12:43:33;;;;;;;5.68;3.95;;;21.50;52.60;;;;;;5042035;28;20106;-79
2022/04/23 12:46:09;;;;;;;8.98;3.53;;;21.50;51.80;;;;;;5033027;28;20123;-80
2022/04/23 12:49:03;;;;;;;7.53;4.03;;;21.60;52.20;;;;;;5031653;28;20049;-79
2022/04/23 12:51:28;;;;;;;10.38;3.50;;;21.80;53.00;;;;;;5049769;28;20186;-81
2022/04/23 12:53:54;;;;;;;6.45;3.13;;;21.80;52.30;;;;;;5032784;28;20135;-81
2022/04/23 12:56:31;;;;;;;5.70;2.70;;;22.00;52.00;;;;;;5067654;28;20055;-81
2022/04/23 12:58:57;;;;;;;10.63;3.50;;;22.10;52.60;;;;;;5069834;28;20044;-80
2022/04/23 13:01:22;;;;;;;9.95;3.88;;;22.20;51.60;;;;;;5046028;28;20041;-79
2022/04/23 13:03:48;;;;;;;7.78;3.70;;;22.30;51.70;;;;;;5062684;28;20056;-81
2022/04/23 13:09:01;;;;;;;5.75;3.60;;;22.60;50.50;;;;;;5064737;28;20048;-80
2022/04/23 13:11:30;;;;;;;6.05;3.30;;;22.60;49.20;;;;;;5049013;28;20044;-79
2022/04/23 13:13:57;;;;;;;9.05;3.30;;;22.60;49.50;;;;;;5031580;28;20049;-79
2022/04/23 13:16:30;;;;;;;5.25;3.40;;;22.70;49.40;;;;;;5050076;28;20045;-80
2022/04/23 13:18:58;;;;;;;5.68;3.47;;;22.80;49.00;;;;;;5057773;28;20555;-79
2022/04/23 13:21:26;;;;;;;8.85;3.65;;;22.80;48.70;;;;;;5051264;28;20040;-79
2022/04/23 13:23:52;;;;;;;11.45;4.03;;;22.90;48.20;;;;;;5052060;28;20045;-79
2022/04/23 13:26:22;;;;;;;5.03;3.63;;;23.00;48.60;;;;;;5049296;28;20041;-78